sensor_id;sensor_type;location;lat;lon;timestamp;P1;durP1;ratioP1;P2;durP2;ratioP2
75716;SDS011;64333;50.138;14.332;2023-04-03T00:02:02;4.93;;;2.27;;
75716;SDS011;64333;50.138;14.332;2023-04-03T00:04:27;5.17;;;2.57;;
75716;SDS011;64333;50.138;14.332;2023-04-03T00:06:53;3.25;;;2.17;;
75716;SDS011;64333;50.138;14.332;2023-04-03T00:09:18;4.03;;;2.33;;
75716;SDS011;64333;50.138;14.332;2023-04-03T00:11:43;6.50;;;2.20;;
75716;SDS011;64333;50.138;14.332;2023-04-03T00:14:08;3.87;;;2.70;;
75716;SDS011;64333;50.138;14.332;2023-04-03T00:16:33;4.27;;;2.70;;
75716;SDS011;64333;50.138;14.332;2023-04-03T00:18:59;3.55;;;2.70;;
75716;SDS011;64333;50.138;14.332;2023-04-03T00:21:24;3.42;;;2.58;;
75716;SDS011;64333;50.138;14.332;2023-04-03T00:23:51;3.53;;;2.30;;
75716;SDS011;64333;50.138;14.332;2023-04-03T00:26:16;4.72;;;2.50;;
75716;SDS011;64333;50.138;14.332;2023-04-03T00:28:41;4.57;;;2.37;;
75716;SDS011;64333;50.138;14.332;2023-04-03T00:31:06;4.13;;;3.57;;
75716;SDS011;64333;50.138;14.332;2023-04-03T00:33:31;3.60;;;2.00;;
75716;SDS011;64333;50.138;14.332;2023-04-03T00:35:57;4.33;;;2.80;;
75716;SDS011;64333;50.138;14.332;2023-04-03T00:38:22;4.17;;;2.70;;
75716;SDS011;64333;50.138;14.332;2023-04-03T00:40:48;5.70;;;3.07;;
75716;SDS011;64333;50.138;14.332;2023-04-03T00:43:18;4.53;;;3.13;;
75716;SDS011;64333;50.138;14.332;2023-04-03T00:45:45;5.22;;;2.75;;
75716;SDS011;64333;50.138;14.332;2023-04-03T00:48:44;3.72;;;2.67;;
75716;SDS011;64333;50.138;14.332;2023-04-03T00:51:02;4.32;;;2.03;;
75716;SDS011;64333;50.138;14.332;2023-04-03T00:54:02;3.47;;;2.65;;
75716;SDS011;64333;50.138;14.332;2023-04-03T00:56:21;3.03;;;2.08;;
75716;SDS011;64333;50.138;14.332;2023-04-03T00:58:49;6.13;;;2.28;;
75716;SDS011;64333;50.138;14.332;2023-04-03T01:01:16;6.15;;;2.53;;
75716;SDS011;64333;50.138;14.332;2023-04-03T01:03:41;5.85;;;2.50;;
75716;SDS011;64333;50.138;14.332;2023-04-03T01:06:07;5.38;;;2.50;;
75716;SDS011;64333;50.138;14.332;2023-04-03T01:08:32;2.63;;;2.00;;
75716;SDS011;64333;50.138;14.332;2023-04-03T01:10:57;3.28;;;1.95;;
75716;SDS011;64333;50.138;14.332;2023-04-03T01:13:24;4.10;;;2.00;;
75716;SDS011;64333;50.138;14.332;2023-04-03T01:15:50;3.03;;;1.85;;
75716;SDS011;64333;50.138;14.332;2023-04-03T01:18:15;4.00;;;1.88;;
75716;SDS011;64333;50.138;14.332;2023-04-03T01:20:56;3.22;;;1.60;;
75716;SDS011;64333;50.138;14.332;2023-04-03T01:23:26;5.13;;;1.90;;
75716;SDS011;64333;50.138;14.332;2023-04-03T01:25:53;3.88;;;1.60;;
75716;SDS011;64333;50.138;14.332;2023-04-03T01:28:23;2.95;;;1.73;;
75716;SDS011;64333;50.138;14.332;2023-04-03T01:30:50;3.15;;;1.67;;
75716;SDS011;64333;50.138;14.332;2023-04-03T01:33:17;6.30;;;2.17;;
75716;SDS011;64333;50.138;14.332;2023-04-03T01:35:43;3.70;;;1.95;;
75716;SDS011;64333;50.138;14.332;2023-04-03T01:38:08;4.33;;;1.70;;
75716;SDS011;64333;50.138;14.332;2023-04-03T01:40:33;3.95;;;1.90;;
75716;SDS011;64333;50.138;14.332;2023-04-03T01:42:58;5.13;;;1.93;;
75716;SDS011;64333;50.138;14.332;2023-04-03T01:45:24;4.63;;;1.95;;
75716;SDS011;64333;50.138;14.332;2023-04-03T01:47:49;2.73;;;1.40;;
75716;SDS011;64333;50.138;14.332;2023-04-03T01:50:15;4.03;;;2.28;;
75716;SDS011;64333;50.138;14.332;2023-04-03T01:52:40;7.40;;;1.70;;
75716;SDS011;64333;50.138;14.332;2023-04-03T01:55:05;2.27;;;1.60;;
75716;SDS011;64333;50.138;14.332;2023-04-03T01:57:30;2.40;;;1.63;;
75716;SDS011;64333;50.138;14.332;2023-04-03T01:59:56;2.87;;;1.27;;
75716;SDS011;64333;50.138;14.332;2023-04-03T02:02:21;4.10;;;1.53;;
75716;SDS011;64333;50.138;14.332;2023-04-03T02:04:46;2.47;;;1.30;;
75716;SDS011;64333;50.138;14.332;2023-04-03T02:07:11;5.13;;;1.37;;
75716;SDS011;64333;50.138;14.332;2023-04-03T02:09:36;1.90;;;1.20;;
75716;SDS011;64333;50.138;14.332;2023-04-03T02:12:02;5.67;;;1.70;;
75716;SDS011;64333;50.138;14.332;2023-04-03T02:14:27;4.18;;;1.48;;
75716;SDS011;64333;50.138;14.332;2023-04-03T02:16:53;3.38;;;1.23;;
75716;SDS011;64333;50.138;14.332;2023-04-03T02:19:18;3.07;;;1.17;;
75716;SDS011;64333;50.138;14.332;2023-04-03T02:21:44;2.50;;;1.20;;
75716;SDS011;64333;50.138;14.332;2023-04-03T02:24:09;5.38;;;1.20;;
75716;SDS011;64333;50.138;14.332;2023-04-03T02:26:34;2.33;;;1.10;;
75716;SDS011;64333;50.138;14.332;2023-04-03T02:29:00;4.03;;;1.42;;
75716;SDS011;64333;50.138;14.332;2023-04-03T02:31:25;2.13;;;1.17;;
75716;SDS011;64333;50.138;14.332;2023-04-03T02:33:51;2.72;;;1.10;;
75716;SDS011;64333;50.138;14.332;2023-04-03T02:36:16;2.53;;;1.13;;
75716;SDS011;64333;50.138;14.332;2023-04-03T02:38:41;2.83;;;1.48;;
75716;SDS011;64333;50.138;14.332;2023-04-03T02:41:08;2.28;;;1.58;;
75716;SDS011;64333;50.138;14.332;2023-04-03T02:43:33;1.73;;;1.15;;
75716;SDS011;64333;50.138;14.332;2023-04-03T02:45:59;5.18;;;1.60;;
75716;SDS011;64333;50.138;14.332;2023-04-03T02:48:24;2.77;;;1.13;;
75716;SDS011;64333;50.138;14.332;2023-04-03T02:50:49;3.15;;;1.30;;
75716;SDS011;64333;50.138;14.332;2023-04-03T02:53:15;2.40;;;1.50;;
75716;SDS011;64333;50.138;14.332;2023-04-03T02:55:40;1.48;;;1.10;;
75716;SDS011;64333;50.138;14.332;2023-04-03T02:58:05;2.10;;;1.30;;
75716;SDS011;64333;50.138;14.332;2023-04-03T03:00:31;3.85;;;1.33;;
75716;SDS011;64333;50.138;14.332;2023-04-03T03:02:56;2.75;;;1.20;;
75716;SDS011;64333;50.138;14.332;2023-04-03T03:05:21;4.07;;;1.33;;
75716;SDS011;64333;50.138;14.332;2023-04-03T03:07:46;3.40;;;1.10;;
75716;SDS011;64333;50.138;14.332;2023-04-03T03:10:12;3.08;;;1.40;;
75716;SDS011;64333;50.138;14.332;2023-04-03T03:12:37;3.37;;;2.37;;
75716;SDS011;64333;50.138;14.332;2023-04-03T03:15:02;4.70;;;1.60;;
75716;SDS011;64333;50.138;14.332;2023-04-03T03:17:27;2.15;;;1.27;;
75716;SDS011;64333;50.138;14.332;2023-04-03T03:19:53;1.73;;;1.30;;
75716;SDS011;64333;50.138;14.332;2023-04-03T03:22:18;3.20;;;1.40;;
75716;SDS011;64333;50.138;14.332;2023-04-03T03:24:43;5.17;;;1.50;;
75716;SDS011;64333;50.138;14.332;2023-04-03T03:27:08;5.33;;;2.03;;
75716;SDS011;64333;50.138;14.332;2023-04-03T03:29:33;2.00;;;1.50;;
75716;SDS011;64333;50.138;14.332;2023-04-03T03:31:59;3.25;;;1.30;;
75716;SDS011;64333;50.138;14.332;2023-04-03T03:34:24;3.97;;;1.25;;
75716;SDS011;64333;50.138;14.332;2023-04-03T03:36:50;4.33;;;1.40;;
75716;SDS011;64333;50.138;14.332;2023-04-03T03:39:15;2.40;;;1.50;;
75716;SDS011;64333;50.138;14.332;2023-04-03T03:41:40;5.47;;;1.40;;
75716;SDS011;64333;50.138;14.332;2023-04-03T03:44:05;4.40;;;1.47;;
75716;SDS011;64333;50.138;14.332;2023-04-03T03:46:31;2.23;;;1.53;;
75716;SDS011;64333;50.138;14.332;2023-04-03T03:48:56;3.33;;;1.43;;
75716;SDS011;64333;50.138;14.332;2023-04-03T03:51:21;5.18;;;1.90;;
75716;SDS011;64333;50.138;14.332;2023-04-03T03:53:46;3.40;;;1.50;;
75716;SDS011;64333;50.138;14.332;2023-04-03T03:56:11;3.33;;;1.37;;
75716;SDS011;64333;50.138;14.332;2023-04-03T03:58:37;1.37;;;1.27;;
75716;SDS011;64333;50.138;14.332;2023-04-03T04:01:03;3.63;;;1.67;;
75716;SDS011;64333;50.138;14.332;2023-04-03T04:03:28;4.00;;;1.80;;
75716;SDS011;64333;50.138;14.332;2023-04-03T04:05:53;4.47;;;1.63;;
75716;SDS011;64333;50.138;14.332;2023-04-03T04:08:19;6.63;;;1.75;;
75716;SDS011;64333;50.138;14.332;2023-04-03T04:10:44;6.37;;;1.50;;
75716;SDS011;64333;50.138;14.332;2023-04-03T04:13:10;4.30;;;1.70;;
75716;SDS011;64333;50.138;14.332;2023-04-03T04:15:35;3.47;;;1.83;;
75716;SDS011;64333;50.138;14.332;2023-04-03T04:18:00;3.90;;;1.83;;
75716;SDS011;64333;50.138;14.332;2023-04-03T04:20:26;2.53;;;1.65;;
75716;SDS011;64333;50.138;14.332;2023-04-03T04:22:51;4.03;;;2.13;;
75716;SDS011;64333;50.138;14.332;2023-04-03T04:25:16;2.72;;;1.70;;
75716;SDS011;64333;50.138;14.332;2023-04-03T04:27:42;3.55;;;1.58;;
75716;SDS011;64333;50.138;14.332;2023-04-03T04:30:07;3.58;;;1.85;;
75716;SDS011;64333;50.138;14.332;2023-04-03T04:32:33;3.28;;;1.80;;
75716;SDS011;64333;50.138;14.332;2023-04-03T04:34:58;3.30;;;1.83;;
75716;SDS011;64333;50.138;14.332;2023-04-03T04:37:23;2.43;;;1.70;;
75716;SDS011;64333;50.138;14.332;2023-04-03T04:39:48;3.20;;;1.97;;
75716;SDS011;64333;50.138;14.332;2023-04-03T04:42:13;2.00;;;1.43;;
75716;SDS011;64333;50.138;14.332;2023-04-03T04:44:39;3.85;;;2.17;;
75716;SDS011;64333;50.138;14.332;2023-04-03T04:47:05;4.17;;;2.00;;
75716;SDS011;64333;50.138;14.332;2023-04-03T04:49:30;5.63;;;2.40;;
75716;SDS011;64333;50.138;14.332;2023-04-03T04:51:55;4.20;;;2.33;;
75716;SDS011;64333;50.138;14.332;2023-04-03T04:54:21;4.53;;;2.22;;
75716;SDS011;64333;50.138;14.332;2023-04-03T04:56:46;4.23;;;1.83;;
75716;SDS011;64333;50.138;14.332;2023-04-03T04:59:11;4.35;;;2.45;;
75716;SDS011;64333;50.138;14.332;2023-04-03T05:01:36;4.67;;;2.50;;
75716;SDS011;64333;50.138;14.332;2023-04-03T05:04:02;7.15;;;2.80;;
75716;SDS011;64333;50.138;14.332;2023-04-03T05:06:27;5.03;;;3.10;;
75716;SDS011;64333;50.138;14.332;2023-04-03T05:08:52;4.47;;;2.78;;
75716;SDS011;64333;50.138;14.332;2023-04-03T05:11:17;4.50;;;1.97;;
75716;SDS011;64333;50.138;14.332;2023-04-03T05:13:43;4.00;;;2.50;;
75716;SDS011;64333;50.138;14.332;2023-04-03T05:16:08;3.27;;;2.03;;
75716;SDS011;64333;50.138;14.332;2023-04-03T05:18:33;4.37;;;2.27;;
75716;SDS011;64333;50.138;14.332;2023-04-03T05:20:58;4.50;;;2.73;;
75716;SDS011;64333;50.138;14.332;2023-04-03T05:23:23;5.17;;;2.27;;
75716;SDS011;64333;50.138;14.332;2023-04-03T05:25:49;8.33;;;2.83;;
75716;SDS011;64333;50.138;14.332;2023-04-03T05:28:14;5.60;;;2.45;;
75716;SDS011;64333;50.138;14.332;2023-04-03T05:30:40;3.67;;;2.53;;
75716;SDS011;64333;50.138;14.332;2023-04-03T05:33:05;5.10;;;2.40;;
75716;SDS011;64333;50.138;14.332;2023-04-03T05:35:31;5.47;;;2.50;;
75716;SDS011;64333;50.138;14.332;2023-04-03T05:37:56;5.63;;;2.58;;
75716;SDS011;64333;50.138;14.332;2023-04-03T05:40:21;5.17;;;2.43;;
75716;SDS011;64333;50.138;14.332;2023-04-03T05:42:47;4.50;;;2.77;;
75716;SDS011;64333;50.138;14.332;2023-04-03T05:45:12;4.43;;;2.10;;
75716;SDS011;64333;50.138;14.332;2023-04-03T05:47:37;4.40;;;2.85;;
75716;SDS011;64333;50.138;14.332;2023-04-03T05:50:03;7.25;;;2.70;;
75716;SDS011;64333;50.138;14.332;2023-04-03T05:52:29;5.40;;;2.63;;
75716;SDS011;64333;50.138;14.332;2023-04-03T05:54:55;6.70;;;3.45;;
75716;SDS011;64333;50.138;14.332;2023-04-03T05:57:20;4.47;;;2.67;;
75716;SDS011;64333;50.138;14.332;2023-04-03T05:59:46;3.77;;;2.70;;
75716;SDS011;64333;50.138;14.332;2023-04-03T06:02:12;4.80;;;2.67;;
75716;SDS011;64333;50.138;14.332;2023-04-03T06:04:38;3.30;;;2.70;;
75716;SDS011;64333;50.138;14.332;2023-04-03T06:07:04;4.82;;;3.45;;
75716;SDS011;64333;50.138;14.332;2023-04-03T06:09:29;5.23;;;2.60;;
75716;SDS011;64333;50.138;14.332;2023-04-03T06:11:55;4.43;;;2.60;;
75716;SDS011;64333;50.138;14.332;2023-04-03T06:14:21;4.60;;;2.80;;
75716;SDS011;64333;50.138;14.332;2023-04-03T06:16:46;4.10;;;2.73;;
75716;SDS011;64333;50.138;14.332;2023-04-03T06:19:11;2.77;;;2.53;;
75716;SDS011;64333;50.138;14.332;2023-04-03T06:21:37;6.57;;;3.15;;
75716;SDS011;64333;50.138;14.332;2023-04-03T06:24:03;4.28;;;2.70;;
75716;SDS011;64333;50.138;14.332;2023-04-03T06:26:29;4.28;;;2.75;;
75716;SDS011;64333;50.138;14.332;2023-04-03T06:28:54;3.63;;;2.58;;
75716;SDS011;64333;50.138;14.332;2023-04-03T06:31:19;4.30;;;2.17;;
75716;SDS011;64333;50.138;14.332;2023-04-03T06:33:45;6.85;;;2.45;;
75716;SDS011;64333;50.138;14.332;2023-04-03T06:36:10;5.75;;;2.67;;
75716;SDS011;64333;50.138;14.332;2023-04-03T06:38:36;6.32;;;2.78;;
75716;SDS011;64333;50.138;14.332;2023-04-03T06:41:01;5.55;;;2.72;;
75716;SDS011;64333;50.138;14.332;2023-04-03T06:43:27;5.40;;;2.92;;
75716;SDS011;64333;50.138;14.332;2023-04-03T06:45:52;4.77;;;2.93;;
75716;SDS011;64333;50.138;14.332;2023-04-03T06:48:18;5.40;;;2.43;;
75716;SDS011;64333;50.138;14.332;2023-04-03T06:50:43;5.35;;;2.90;;
75716;SDS011;64333;50.138;14.332;2023-04-03T06:53:09;6.60;;;3.28;;
75716;SDS011;64333;50.138;14.332;2023-04-03T06:55:34;4.78;;;2.88;;
75716;SDS011;64333;50.138;14.332;2023-04-03T06:58:00;4.90;;;2.80;;
75716;SDS011;64333;50.138;14.332;2023-04-03T07:00:26;5.43;;;2.95;;
75716;SDS011;64333;50.138;14.332;2023-04-03T07:02:51;4.28;;;3.25;;
75716;SDS011;64333;50.138;14.332;2023-04-03T07:05:17;4.18;;;2.70;;
75716;SDS011;64333;50.138;14.332;2023-04-03T07:07:43;3.80;;;2.78;;
75716;SDS011;64333;50.138;14.332;2023-04-03T07:10:08;5.03;;;2.40;;
75716;SDS011;64333;50.138;14.332;2023-04-03T07:12:34;3.97;;;2.92;;
75716;SDS011;64333;50.138;14.332;2023-04-03T07:15:00;5.55;;;3.28;;
75716;SDS011;64333;50.138;14.332;2023-04-03T07:17:25;3.97;;;2.47;;
75716;SDS011;64333;50.138;14.332;2023-04-03T07:19:50;4.30;;;2.80;;
75716;SDS011;64333;50.138;14.332;2023-04-03T07:22:15;5.35;;;3.17;;
75716;SDS011;64333;50.138;14.332;2023-04-03T07:24:41;4.13;;;3.13;;
75716;SDS011;64333;50.138;14.332;2023-04-03T07:27:06;4.97;;;2.90;;
75716;SDS011;64333;50.138;14.332;2023-04-03T07:29:33;4.28;;;2.70;;
75716;SDS011;64333;50.138;14.332;2023-04-03T07:31:58;5.38;;;2.60;;
75716;SDS011;64333;50.138;14.332;2023-04-03T07:34:23;3.33;;;2.93;;
75716;SDS011;64333;50.138;14.332;2023-04-03T07:36:49;3.60;;;2.80;;
75716;SDS011;64333;50.138;14.332;2023-04-03T07:39:14;5.07;;;3.20;;
75716;SDS011;64333;50.138;14.332;2023-04-03T07:41:39;3.25;;;2.70;;
75716;SDS011;64333;50.138;14.332;2023-04-03T07:44:05;5.40;;;2.87;;
75716;SDS011;64333;50.138;14.332;2023-04-03T07:46:30;5.25;;;3.30;;
75716;SDS011;64333;50.138;14.332;2023-04-03T07:48:55;7.85;;;2.92;;
75716;SDS011;64333;50.138;14.332;2023-04-03T07:51:21;3.27;;;2.70;;
75716;SDS011;64333;50.138;14.332;2023-04-03T07:53:46;7.13;;;4.10;;
75716;SDS011;64333;50.138;14.332;2023-04-03T07:56:11;4.33;;;3.13;;
75716;SDS011;64333;50.138;14.332;2023-04-03T07:58:36;4.20;;;2.90;;
75716;SDS011;64333;50.138;14.332;2023-04-03T08:01:02;5.80;;;2.80;;
75716;SDS011;64333;50.138;14.332;2023-04-03T08:03:27;5.95;;;3.28;;
75716;SDS011;64333;50.138;14.332;2023-04-03T08:05:52;3.90;;;2.57;;
75716;SDS011;64333;50.138;14.332;2023-04-03T08:08:20;6.38;;;2.90;;
75716;SDS011;64333;50.138;14.332;2023-04-03T08:10:50;4.47;;;2.83;;
75716;SDS011;64333;50.138;14.332;2023-04-03T08:13:15;4.22;;;3.00;;
75716;SDS011;64333;50.138;14.332;2023-04-03T08:15:40;4.40;;;3.00;;
75716;SDS011;64333;50.138;14.332;2023-04-03T08:18:06;2.53;;;2.33;;
75716;SDS011;64333;50.138;14.332;2023-04-03T08:20:31;5.40;;;3.10;;
75716;SDS011;64333;50.138;14.332;2023-04-03T08:22:56;5.07;;;2.60;;
75716;SDS011;64333;50.138;14.332;2023-04-03T08:25:21;2.83;;;2.13;;
75716;SDS011;64333;50.138;14.332;2023-04-03T08:27:47;3.27;;;2.80;;
75716;SDS011;64333;50.138;14.332;2023-04-03T08:30:12;4.90;;;2.13;;
75716;SDS011;64333;50.138;14.332;2023-04-03T08:32:37;3.72;;;2.80;;
75716;SDS011;64333;50.138;14.332;2023-04-03T08:35:03;3.05;;;2.42;;
75716;SDS011;64333;50.138;14.332;2023-04-03T08:37:29;3.55;;;2.80;;
75716;SDS011;64333;50.138;14.332;2023-04-03T08:39:55;3.42;;;2.40;;
75716;SDS011;64333;50.138;14.332;2023-04-03T08:45:04;4.47;;;2.72;;
75716;SDS011;64333;50.138;14.332;2023-04-03T08:50:05;3.83;;;2.90;;
75716;SDS011;64333;50.138;14.332;2023-04-03T08:55:00;3.80;;;2.50;;
75716;SDS011;64333;50.138;14.332;2023-04-03T08:57:28;3.80;;;2.90;;
75716;SDS011;64333;50.138;14.332;2023-04-03T08:59:53;3.47;;;2.55;;
75716;SDS011;64333;50.138;14.332;2023-04-03T09:04:47;3.17;;;2.20;;
75716;SDS011;64333;50.138;14.332;2023-04-03T09:07:21;3.58;;;2.63;;
75716;SDS011;64333;50.138;14.332;2023-04-03T09:09:48;4.57;;;2.40;;
75716;SDS011;64333;50.138;14.332;2023-04-03T09:12:21;4.60;;;2.33;;
75716;SDS011;64333;50.138;14.332;2023-04-03T09:17:34;2.85;;;2.05;;
75716;SDS011;64333;50.138;14.332;2023-04-03T09:22:27;2.97;;;1.92;;
75716;SDS011;64333;50.138;14.332;2023-04-03T09:27:27;3.03;;;2.15;;
75716;SDS011;64333;50.138;14.332;2023-04-03T09:29:53;3.30;;;1.55;;
75716;SDS011;64333;50.138;14.332;2023-04-03T09:34:56;4.47;;;2.28;;
75716;SDS011;64333;50.138;14.332;2023-04-03T09:37:33;3.67;;;1.67;;
75716;SDS011;64333;50.138;14.332;2023-04-03T09:39:58;3.78;;;1.90;;
75716;SDS011;64333;50.138;14.332;2023-04-03T09:42:24;2.58;;;1.75;;
75716;SDS011;64333;50.138;14.332;2023-04-03T09:49:46;2.37;;;1.70;;
75716;SDS011;64333;50.138;14.332;2023-04-03T09:52:18;4.57;;;1.60;;
75716;SDS011;64333;50.138;14.332;2023-04-03T09:54:44;3.08;;;1.90;;
75716;SDS011;64333;50.138;14.332;2023-04-03T09:57:12;3.80;;;2.00;;
75716;SDS011;64333;50.138;14.332;2023-04-03T09:59:59;2.65;;;1.80;;
75716;SDS011;64333;50.138;14.332;2023-04-03T10:04:52;2.53;;;1.90;;
75716;SDS011;64333;50.138;14.332;2023-04-03T10:07:31;3.13;;;2.20;;
75716;SDS011;64333;50.138;14.332;2023-04-03T10:09:58;2.40;;;1.58;;
75716;SDS011;64333;50.138;14.332;2023-04-03T10:12:23;1.65;;;1.42;;
75716;SDS011;64333;50.138;14.332;2023-04-03T10:17:24;3.05;;;1.20;;
75716;SDS011;64333;50.138;14.332;2023-04-03T10:25:15;2.63;;;1.80;;
75716;SDS011;64333;50.138;14.332;2023-04-03T10:40:34;4.18;;;1.58;;
75716;SDS011;64333;50.138;14.332;2023-04-03T10:46:02;4.97;;;2.08;;
75716;SDS011;64333;50.138;14.332;2023-04-03T10:53:29;4.13;;;1.80;;
75716;SDS011;64333;50.138;14.332;2023-04-03T10:58:30;2.47;;;1.50;;
75716;SDS011;64333;50.138;14.332;2023-04-03T11:00:58;3.60;;;2.17;;
75716;SDS011;64333;50.138;14.332;2023-04-03T11:05:52;2.15;;;1.63;;
75716;SDS011;64333;50.138;14.332;2023-04-03T11:10:53;3.88;;;1.90;;
75716;SDS011;64333;50.138;14.332;2023-04-03T11:13:24;2.88;;;2.15;;
75716;SDS011;64333;50.138;14.332;2023-04-03T11:15:52;8.10;;;1.63;;
75716;SDS011;64333;50.138;14.332;2023-04-03T11:19:01;2.17;;;1.58;;
75716;SDS011;64333;50.138;14.332;2023-04-03T11:21:15;2.90;;;1.80;;
75716;SDS011;64333;50.138;14.332;2023-04-03T11:23:41;2.65;;;1.63;;
75716;SDS011;64333;50.138;14.332;2023-04-03T11:26:14;4.72;;;1.70;;
75716;SDS011;64333;50.138;14.332;2023-04-03T11:28:41;2.13;;;1.83;;
75716;SDS011;64333;50.138;14.332;2023-04-03T11:36:10;2.90;;;1.70;;
75716;SDS011;64333;50.138;14.332;2023-04-03T11:38:38;3.30;;;1.95;;
75716;SDS011;64333;50.138;14.332;2023-04-03T11:41:07;3.67;;;1.70;;
75716;SDS011;64333;50.138;14.332;2023-04-03T11:43:33;5.03;;;1.80;;
75716;SDS011;64333;50.138;14.332;2023-04-03T11:45:59;2.53;;;1.55;;
75716;SDS011;64333;50.138;14.332;2023-04-03T11:50:57;2.78;;;1.75;;
75716;SDS011;64333;50.138;14.332;2023-04-03T11:55:55;1.75;;;1.58;;
75716;SDS011;64333;50.138;14.332;2023-04-03T11:58:39;2.95;;;1.58;;
75716;SDS011;64333;50.138;14.332;2023-04-03T12:01:05;3.30;;;1.73;;
75716;SDS011;64333;50.138;14.332;2023-04-03T12:11:39;2.87;;;1.30;;
75716;SDS011;64333;50.138;14.332;2023-04-03T12:21:14;2.43;;;1.83;;
75716;SDS011;64333;50.138;14.332;2023-04-03T12:24:00;2.28;;;1.20;;
75716;SDS011;64333;50.138;14.332;2023-04-03T12:26:30;2.25;;;1.27;;
75716;SDS011;64333;50.138;14.332;2023-04-03T12:28:56;2.35;;;1.30;;
75716;SDS011;64333;50.138;14.332;2023-04-03T12:31:22;1.60;;;1.00;;
75716;SDS011;64333;50.138;14.332;2023-04-03T12:36:36;2.75;;;1.20;;
75716;SDS011;64333;50.138;14.332;2023-04-03T12:39:11;3.90;;;1.42;;
75716;SDS011;64333;50.138;14.332;2023-04-03T12:46:49;2.17;;;1.20;;
75716;SDS011;64333;50.138;14.332;2023-04-03T12:52:00;2.53;;;1.00;;
75716;SDS011;64333;50.138;14.332;2023-04-03T12:54:27;3.63;;;1.50;;
75716;SDS011;64333;50.138;14.332;2023-04-03T12:57:15;2.00;;;1.38;;
75716;SDS011;64333;50.138;14.332;2023-04-03T12:59:41;2.35;;;1.00;;
75716;SDS011;64333;50.138;14.332;2023-04-03T13:04:53;1.98;;;1.15;;
75716;SDS011;64333;50.138;14.332;2023-04-03T13:07:40;4.38;;;1.50;;
75716;SDS011;64333;50.138;14.332;2023-04-03T13:12:45;1.80;;;1.00;;
75716;SDS011;64333;50.138;14.332;2023-04-03T13:17:43;2.15;;;1.10;;
75716;SDS011;64333;50.138;14.332;2023-04-03T13:20:14;2.33;;;1.05;;
75716;SDS011;64333;50.138;14.332;2023-04-03T13:22:43;3.50;;;1.00;;
75716;SDS011;64333;50.138;14.332;2023-04-03T13:25:11;1.95;;;1.08;;
75716;SDS011;64333;50.138;14.332;2023-04-03T13:27:38;1.80;;;1.08;;
75716;SDS011;64333;50.138;14.332;2023-04-03T13:30:04;1.95;;;1.15;;
75716;SDS011;64333;50.138;14.332;2023-04-03T13:32:30;3.13;;;1.33;;
75716;SDS011;64333;50.138;14.332;2023-04-03T13:34:56;2.67;;;1.05;;
75716;SDS011;64333;50.138;14.332;2023-04-03T13:39:56;2.20;;;1.02;;
75716;SDS011;64333;50.138;14.332;2023-04-03T13:42:23;2.13;;;1.00;;
75716;SDS011;64333;50.138;14.332;2023-04-03T13:44:48;2.05;;;1.33;;
75716;SDS011;64333;50.138;14.332;2023-04-03T13:47:16;3.67;;;1.17;;
75716;SDS011;64333;50.138;14.332;2023-04-03T13:49:42;2.55;;;1.35;;
75716;SDS011;64333;50.138;14.332;2023-04-03T13:53:09;1.90;;;0.90;;
75716;SDS011;64333;50.138;14.332;2023-04-03T13:55:15;0.90;;;0.80;;
75716;SDS011;64333;50.138;14.332;2023-04-03T13:58:00;1.33;;;0.68;;
75716;SDS011;64333;50.138;14.332;2023-04-03T14:00:37;2.70;;;1.20;;
75716;SDS011;64333;50.138;14.332;2023-04-03T14:03:11;0.75;;;0.65;;
75716;SDS011;64333;50.138;14.332;2023-04-03T14:05:36;3.33;;;1.70;;
75716;SDS011;64333;50.138;14.332;2023-04-03T14:08:01;0.93;;;0.80;;
75716;SDS011;64333;50.138;14.332;2023-04-03T14:10:27;1.42;;;0.93;;
75716;SDS011;64333;50.138;14.332;2023-04-03T14:12:52;2.90;;;1.27;;
75716;SDS011;64333;50.138;14.332;2023-04-03T14:15:24;1.87;;;0.80;;
75716;SDS011;64333;50.138;14.332;2023-04-03T14:17:51;3.53;;;1.00;;
75716;SDS011;64333;50.138;14.332;2023-04-03T14:20:21;1.45;;;0.88;;
75716;SDS011;64333;50.138;14.332;2023-04-03T14:22:46;2.00;;;0.95;;
75716;SDS011;64333;50.138;14.332;2023-04-03T14:25:12;3.05;;;1.08;;
75716;SDS011;64333;50.138;14.332;2023-04-03T14:27:42;2.63;;;1.30;;
75716;SDS011;64333;50.138;14.332;2023-04-03T14:30:09;0.70;;;0.52;;
75716;SDS011;64333;50.138;14.332;2023-04-03T14:32:37;1.50;;;0.90;;
75716;SDS011;64333;50.138;14.332;2023-04-03T14:35:02;2.28;;;1.00;;
75716;SDS011;64333;50.138;14.332;2023-04-03T14:37:28;2.90;;;1.10;;
75716;SDS011;64333;50.138;14.332;2023-04-03T14:39:54;2.70;;;1.58;;
75716;SDS011;64333;50.138;14.332;2023-04-03T14:42:21;4.95;;;1.02;;
75716;SDS011;64333;50.138;14.332;2023-04-03T14:44:47;1.35;;;1.00;;
75716;SDS011;64333;50.138;14.332;2023-04-03T14:47:12;1.30;;;0.90;;
75716;SDS011;64333;50.138;14.332;2023-04-03T14:49:38;2.45;;;1.00;;
75716;SDS011;64333;50.138;14.332;2023-04-03T14:52:04;1.92;;;1.00;;
75716;SDS011;64333;50.138;14.332;2023-04-03T14:54:29;1.98;;;1.25;;
75716;SDS011;64333;50.138;14.332;2023-04-03T14:56:56;1.45;;;0.93;;
75716;SDS011;64333;50.138;14.332;2023-04-03T14:59:22;2.00;;;1.00;;
75716;SDS011;64333;50.138;14.332;2023-04-03T15:01:47;2.03;;;1.15;;
75716;SDS011;64333;50.138;14.332;2023-04-03T15:04:13;2.00;;;1.00;;
75716;SDS011;64333;50.138;14.332;2023-04-03T15:06:39;3.25;;;1.40;;
75716;SDS011;64333;50.138;14.332;2023-04-03T15:09:17;1.15;;;0.77;;
75716;SDS011;64333;50.138;14.332;2023-04-03T15:11:43;1.50;;;1.00;;
75716;SDS011;64333;50.138;14.332;2023-04-03T15:14:08;2.27;;;1.07;;
75716;SDS011;64333;50.138;14.332;2023-04-03T15:16:34;1.38;;;1.02;;
75716;SDS011;64333;50.138;14.332;2023-04-03T15:18:59;1.40;;;1.10;;
75716;SDS011;64333;50.138;14.332;2023-04-03T15:21:24;1.10;;;0.90;;
75716;SDS011;64333;50.138;14.332;2023-04-03T15:23:49;2.93;;;1.40;;
75716;SDS011;64333;50.138;14.332;2023-04-03T15:26:15;1.87;;;1.10;;
75716;SDS011;64333;50.138;14.332;2023-04-03T15:28:40;1.60;;;1.17;;
75716;SDS011;64333;50.138;14.332;2023-04-03T15:31:06;2.67;;;1.40;;
75716;SDS011;64333;50.138;14.332;2023-04-03T15:33:32;2.63;;;2.05;;
75716;SDS011;64333;50.138;14.332;2023-04-03T15:35:58;4.50;;;2.03;;
75716;SDS011;64333;50.138;14.332;2023-04-03T15:38:23;1.77;;;1.20;;
75716;SDS011;64333;50.138;14.332;2023-04-03T15:40:48;3.00;;;1.05;;
75716;SDS011;64333;50.138;14.332;2023-04-03T15:43:14;3.67;;;1.43;;
75716;SDS011;64333;50.138;14.332;2023-04-03T15:45:39;2.38;;;1.40;;
75716;SDS011;64333;50.138;14.332;2023-04-03T15:48:05;2.60;;;1.27;;
75716;SDS011;64333;50.138;14.332;2023-04-03T15:50:31;2.53;;;1.33;;
75716;SDS011;64333;50.138;14.332;2023-04-03T15:52:56;2.67;;;1.17;;
75716;SDS011;64333;50.138;14.332;2023-04-03T15:55:25;1.58;;;1.33;;
75716;SDS011;64333;50.138;14.332;2023-04-03T15:57:51;2.25;;;1.55;;
75716;SDS011;64333;50.138;14.332;2023-04-03T16:00:17;3.10;;;0.93;;
75716;SDS011;64333;50.138;14.332;2023-04-03T16:02:45;2.10;;;1.40;;
75716;SDS011;64333;50.138;14.332;2023-04-03T16:05:12;2.30;;;1.00;;
75716;SDS011;64333;50.138;14.332;2023-04-03T16:07:40;1.52;;;1.20;;
75716;SDS011;64333;50.138;14.332;2023-04-03T16:10:07;2.42;;;1.30;;
75716;SDS011;64333;50.138;14.332;2023-04-03T16:12:32;4.57;;;1.40;;
75716;SDS011;64333;50.138;14.332;2023-04-03T16:14:58;1.90;;;1.17;;
75716;SDS011;64333;50.138;14.332;2023-04-03T16:17:23;2.70;;;1.20;;
75716;SDS011;64333;50.138;14.332;2023-04-03T16:19:48;1.23;;;0.90;;
75716;SDS011;64333;50.138;14.332;2023-04-03T16:22:14;3.80;;;1.77;;